Terminal Aerodrome Forecast
Issued by NWS

Home | Current Version | Previous Version | Text Only | Print | Product List | Glossary On
Versions: 1 2 3 4 5 6 7 8 9 10 11 12 13 14
000
FTUS45 KPSR 240207 AAA
TAFIWA
TAF AMD
KIWA 240207Z 2402/2424 29012KT P6SM FEW120 SCT250
     FM240330 28007KT P6SM SCT250
     FM240700 12006KT P6SM SCT250
     FM242000 27007KT P6SM FEW120 SCT250
      AMD LTD TO CLD VIS AND WIND 2403/2413=

USA.gov is the U.S. government's official web portal to all federal, state and local government web resources and services.